createdAt,value
2018-07-12T00:01:42.985Z,99759.08
2018-07-12T00:04:10.521Z,99753.48
2018-07-12T00:06:38.039Z,99755.05
2018-07-12T00:09:05.572Z,99757.09
2018-07-12T00:11:33.042Z,99754.19
2018-07-12T00:14:00.580Z,99754.95
2018-07-12T00:16:28.097Z,99751.35
2018-07-12T00:18:55.697Z,99755.59
2018-07-12T00:21:23.157Z,99753.63
2018-07-12T00:23:50.700Z,99755.64
2018-07-12T00:26:18.189Z,99752.50
2018-07-12T00:28:45.659Z,99756.44
2018-07-12T00:31:13.204Z,99762.60
2018-07-12T00:33:40.709Z,99764.91
2018-07-12T00:36:08.279Z,99763.13
2018-07-12T00:38:35.817Z,99769.64
2018-07-12T00:41:03.287Z,99765.09
2018-07-12T00:43:30.829Z,99770.72
2018-07-12T00:45:58.301Z,99769.81
2018-07-12T00:48:25.818Z,99766.97
2018-07-12T00:50:53.345Z,99779.97
2018-07-12T00:53:21.001Z,99765.22
2018-07-12T00:55:48.533Z,99773.39
2018-07-12T00:58:16.022Z,99772.78
2018-07-12T01:00:43.564Z,99768.95
2018-07-12T01:03:11.055Z,99769.23
2018-07-12T01:05:38.539Z,99769.23
2018-07-12T01:08:06.021Z,99769.23
2018-07-12T01:10:33.552Z,99766.50
2018-07-12T01:13:01.048Z,99769.53
2018-07-12T01:15:28.684Z,99774.97
2018-07-12T01:17:56.201Z,99774.93
2018-07-12T01:20:23.665Z,99776.21
2018-07-12T01:22:51.154Z,99774.55
2018-07-12T01:25:18.673Z,99768.05
2018-07-12T01:27:46.227Z,99778.33
2018-07-12T01:30:13.768Z,99773.02
2018-07-12T01:32:41.244Z,99762.70
2018-07-12T01:35:08.776Z,99772.27
2018-07-12T01:37:36.318Z,99774.69
2018-07-12T01:40:03.795Z,99775.70
2018-07-12T01:42:31.257Z,99780.31
2018-07-12T01:44:58.799Z,99777.89
2018-07-12T01:47:26.281Z,99772.45
2018-07-12T01:49:53.809Z,99778.95
2018-07-12T01:52:21.387Z,99769.42
2018-07-12T01:54:48.864Z,99772.75
2018-07-12T01:57:16.349Z,99768.89
2018-07-12T01:59:43.881Z,99772.45
2018-07-12T02:02:11.420Z,99772.14
2018-07-12T02:04:38.908Z,99771.09
2018-07-12T02:07:06.373Z,99770.61
2018-07-12T02:09:33.893Z,99769.25
2018-07-12T02:12:01.420Z,99775.22
2018-07-12T02:14:28.905Z,99777.72
2018-07-12T02:16:56.482Z,99774.23
2018-07-12T02:19:24.073Z,99775.16
2018-07-12T02:21:51.738Z,99773.61
2018-07-12T02:24:19.269Z,99773.77
2018-07-12T02:26:46.877Z,99771.35
2018-07-12T02:29:14.356Z,99780.58
2018-07-12T02:31:41.913Z,99775.89
2018-07-12T02:34:09.389Z,99785.28
2018-07-12T02:36:36.994Z,99783.46
2018-07-12T02:39:04.820Z,99782.20
2018-07-12T02:41:32.357Z,99790.15
2018-07-12T02:43:59.907Z,99796.17
2018-07-12T02:46:27.491Z,99790.22
2018-07-12T02:48:55.050Z,99795.30
2018-07-12T02:51:22.531Z,99792.41
2018-07-12T02:53:50.132Z,99789.99
2018-07-12T02:56:17.630Z,99790.44
2018-07-12T02:58:45.170Z,99789.77
2018-07-12T03:01:12.785Z,99789.99
2018-07-12T03:03:40.313Z,99793.55
2018-07-12T03:06:07.874Z,99797.31
2018-07-12T03:08:35.376Z,99796.05
2018-07-12T03:11:02.985Z,99790.74
2018-07-12T03:13:30.714Z,99795.30
2018-07-12T03:15:58.254Z,99794.16
2018-07-12T03:18:25.745Z,99791.95
2018-07-12T03:20:53.276Z,99796.03
2018-07-12T03:23:20.864Z,99796.23
2018-07-12T03:25:48.340Z,99792.97
2018-07-12T03:28:15.893Z,99794.62
2018-07-12T03:30:43.370Z,99790.20
2018-07-12T03:33:10.832Z,99801.68
2018-07-12T03:35:38.319Z,99794.27
2018-07-12T03:38:05.906Z,99791.20
2018-07-12T03:40:33.531Z,99792.56
2018-07-12T03:43:00.976Z,99802.94
2018-07-12T03:45:28.523Z,99799.70
2018-07-12T03:47:56.054Z,99803.30
2018-07-12T03:50:23.594Z,99800.81
2018-07-12T03:52:51.151Z,99800.56
2018-07-12T03:55:18.644Z,99796.97
2018-07-12T03:57:46.178Z,99798.22
2018-07-12T04:00:13.673Z,99800.31
2018-07-12T04:02:41.288Z,99799.55
2018-07-12T04:05:09.708Z,99801.53
2018-07-12T04:07:37.208Z,99808.78
2018-07-12T04:10:04.743Z,99803.94
2018-07-12T04:12:32.293Z,99801.31
2018-07-12T04:14:59.938Z,99798.27
2018-07-12T04:17:30.701Z,99799.95
2018-07-12T04:19:59.390Z,99798.10
2018-07-12T04:22:28.009Z,99807.58
2018-07-12T04:24:55.542Z,99804.46
2018-07-12T04:27:23.333Z,99802.37
2018-07-12T04:29:52.056Z,99807.81
2018-07-12T04:32:19.656Z,99803.63
2018-07-12T04:34:47.895Z,99813.16
2018-07-12T04:37:15.584Z,99811.73
2018-07-12T04:39:43.233Z,99816.00
2018-07-12T04:42:10.787Z,99804.13
2018-07-12T04:44:38.349Z,99805.00
2018-07-12T04:47:05.843Z,99806.37
2018-07-12T04:49:33.338Z,99805.80
2018-07-12T04:52:01.421Z,99805.77
2018-07-12T04:54:29.437Z,99810.00
2018-07-12T04:56:56.916Z,99799.31
2018-07-12T04:59:24.496Z,99804.75
2018-07-12T05:01:52.057Z,99812.20
2018-07-12T05:04:19.526Z,99807.32
2018-07-12T05:06:47.065Z,99811.80
2018-07-12T05:09:14.544Z,99806.38
2018-07-12T05:11:42.172Z,99811.38
2018-07-12T05:14:09.700Z,99809.45
2018-07-12T05:16:37.302Z,99810.00
2018-07-12T05:19:04.800Z,99815.94
2018-07-12T05:21:32.282Z,99817.41
2018-07-12T05:23:59.837Z,99816.03
2018-07-12T05:26:27.362Z,99819.20
2018-07-12T05:28:54.895Z,99818.47
2018-07-12T05:31:22.428Z,99822.81
2018-07-12T05:33:50.028Z,99819.48
2018-07-12T05:36:43.972Z,99820.56
2018-07-12T05:39:13.020Z,99823.36
2018-07-12T05:41:42.053Z,99817.17
2018-07-12T05:44:10.996Z,99820.91
2018-07-12T05:46:40.069Z,99827.36
2018-07-12T05:49:09.213Z,99830.70
2018-07-12T05:51:38.267Z,99837.66
2018-07-12T05:54:07.461Z,99828.58
2018-07-12T05:56:36.543Z,99832.18
2018-07-12T05:59:05.537Z,99826.01
2018-07-12T06:01:45.560Z,99825.28
2018-07-12T06:04:14.576Z,99824.17
2018-07-12T06:06:43.739Z,99821.52
2018-07-12T06:09:13.158Z,99823.50
2018-07-12T06:11:42.114Z,99828.45
2018-07-12T06:14:11.103Z,99828.97
2018-07-12T06:16:40.110Z,99833.97
2018-07-12T06:19:09.210Z,99822.98
2018-07-12T06:21:38.187Z,99823.64
2018-07-12T06:24:07.198Z,99824.23
2018-07-12T06:26:36.175Z,99824.30
2018-07-12T06:29:05.185Z,99826.45
2018-07-12T06:31:34.221Z,99825.20
2018-07-12T06:34:03.221Z,99825.87
2018-07-12T06:36:32.354Z,99825.33
2018-07-12T06:39:01.637Z,99822.81
2018-07-12T06:41:30.689Z,99818.25
2018-07-12T06:43:59.672Z,99820.77
2018-07-12T06:46:28.625Z,99818.67
2018-07-12T06:48:57.668Z,99813.37
2018-07-12T06:51:26.657Z,99820.95
2018-07-12T06:53:55.681Z,99816.36
2018-07-12T06:56:24.688Z,99818.67
2018-07-12T06:58:53.845Z,99813.62
2018-07-12T07:01:23.105Z,99814.25
2018-07-12T07:03:52.116Z,99816.74
2018-07-12T07:06:21.145Z,99821.77
2018-07-12T07:08:50.140Z,99814.06
2018-07-12T07:11:19.249Z,99815.33
2018-07-12T07:13:48.293Z,99812.45
2018-07-12T07:16:17.274Z,99810.11
2018-07-12T07:18:46.279Z,99809.25
2018-07-12T07:21:15.352Z,99809.19
2018-07-12T07:23:44.369Z,99811.27
2018-07-12T07:26:13.468Z,99810.53
2018-07-12T07:28:42.525Z,99815.60
2018-07-12T07:31:11.511Z,99808.47
2018-07-12T07:33:40.497Z,99813.59
2018-07-12T07:36:09.547Z,99813.31
2018-07-12T07:38:38.652Z,99809.44
2018-07-12T07:41:07.943Z,99807.84
2018-07-12T07:43:36.908Z,99812.00
2018-07-12T07:46:05.884Z,99813.55
2018-07-12T07:48:34.913Z,99814.39
2018-07-12T07:51:03.919Z,99810.77
2018-07-12T07:53:33.004Z,99820.22
2018-07-12T07:56:02.082Z,99818.80
2018-07-12T07:58:31.053Z,99812.80
2018-07-12T08:01:00.164Z,99814.80
2018-07-12T08:03:29.297Z,99817.72
2018-07-12T08:05:58.256Z,99813.89
2018-07-12T08:08:27.296Z,99819.77
2018-07-12T08:10:56.343Z,99817.95
2018-07-12T08:13:25.327Z,99818.67
2018-07-12T08:15:54.288Z,99823.14
2018-07-12T08:18:23.445Z,99824.36
2018-07-12T08:20:52.501Z,99822.58
2018-07-12T08:23:21.675Z,99816.98
2018-07-12T08:25:58.096Z,99819.28
2018-07-12T08:28:28.833Z,99818.74
2018-07-12T08:30:58.296Z,99820.94
2018-07-12T08:33:27.465Z,99827.63
2018-07-12T08:35:56.554Z,99827.36
2018-07-12T08:38:26.053Z,99819.67
2018-07-12T08:40:55.184Z,99817.29
2018-07-12T08:43:24.131Z,99817.87
2018-07-12T08:45:53.151Z,99822.75
2018-07-12T08:48:22.186Z,99824.81
2018-07-12T08:50:51.128Z,99819.27
2018-07-12T08:53:20.200Z,99825.61
2018-07-12T08:55:49.176Z,99832.80
2018-07-12T08:58:18.215Z,99820.75
2018-07-12T09:00:47.248Z,99825.05
2018-07-12T09:03:16.274Z,99822.23
2018-07-12T09:05:45.306Z,99823.63
2018-07-12T09:08:14.345Z,99828.00
2018-07-12T09:10:43.319Z,99824.91
2018-07-12T09:13:12.332Z,99828.53
2018-07-12T09:15:41.425Z,99827.16
2018-07-12T09:18:10.420Z,99830.44
2018-07-12T09:20:39.412Z,99825.93
2018-07-12T09:23:08.433Z,99833.80
2018-07-12T09:25:37.603Z,99823.14
2018-07-12T09:28:06.601Z,99820.44
2018-07-12T09:30:35.561Z,99824.39
2018-07-12T09:33:04.594Z,99827.00
2018-07-12T09:35:33.682Z,99821.00
2018-07-12T09:38:02.740Z,99826.03
2018-07-12T09:40:31.709Z,99820.64
2018-07-12T09:43:00.830Z,99822.48
2018-07-12T09:45:29.790Z,99817.26
2018-07-12T09:47:58.885Z,99817.17
2018-07-12T09:50:27.888Z,99811.41
2018-07-12T09:52:56.868Z,99810.03
2018-07-12T09:55:25.943Z,99805.60
2018-07-12T09:58:05.697Z,99806.71
2018-07-12T10:00:39.719Z,99806.66
2018-07-12T10:03:13.692Z,99798.02
2018-07-12T10:05:47.628Z,99802.59
2018-07-12T10:09:22.444Z,99808.71
2018-07-12T10:11:56.491Z,99795.49
2018-07-12T10:14:30.547Z,99798.86
2018-07-12T10:17:04.672Z,99795.45
2018-07-12T10:19:33.704Z,99793.72
2018-07-12T10:22:02.748Z,99795.31
2018-07-12T10:24:31.760Z,99788.62
2018-07-12T10:27:00.805Z,99794.19
2018-07-12T10:29:29.808Z,99793.14
2018-07-12T10:31:58.917Z,99793.36
2018-07-12T10:34:27.886Z,99794.41
2018-07-12T10:36:56.836Z,99792.94
2018-07-12T10:39:25.880Z,99789.66
2018-07-12T10:41:54.913Z,99793.88
2018-07-12T10:44:23.997Z,99795.67
2018-07-12T10:46:53.046Z,99789.95
2018-07-12T10:49:22.164Z,99784.88
2018-07-12T10:51:51.209Z,99786.86
2018-07-12T10:54:20.272Z,99787.42
2018-07-12T10:56:49.261Z,99788.95
2018-07-12T10:59:18.289Z,99785.44
2018-07-12T11:01:47.260Z,99783.68
2018-07-12T11:04:16.224Z,99778.11
2018-07-12T11:06:45.322Z,99778.48
2018-07-12T11:09:14.439Z,99780.09
2018-07-12T11:11:43.473Z,99768.79
2018-07-12T11:14:12.456Z,99773.66
2018-07-12T11:16:41.431Z,99772.06
2018-07-12T11:19:10.448Z,99771.59
2018-07-12T11:21:39.457Z,99747.77
2018-07-12T11:24:08.557Z,99768.19
2018-07-12T11:26:37.532Z,99769.06
2018-07-12T11:29:06.558Z,99768.27
2018-07-12T11:31:35.524Z,99767.00
2018-07-12T11:34:04.553Z,99773.23
2018-07-12T11:36:33.535Z,99765.21
2018-07-12T11:39:02.536Z,99769.56
2018-07-12T11:41:31.613Z,99765.17
2018-07-12T11:44:00.595Z,99764.69
2018-07-12T11:46:29.624Z,99762.73
2018-07-12T11:48:58.611Z,99758.80
2018-07-12T11:51:27.587Z,99760.73
2018-07-12T11:53:56.567Z,99758.72
2018-07-12T11:56:25.581Z,99756.09
2018-07-12T11:58:54.735Z,99754.05
2018-07-12T12:01:23.885Z,99741.63
2018-07-12T12:03:52.964Z,99744.98
2018-07-12T12:06:22.002Z,99741.91
2018-07-12T12:08:50.987Z,99743.48
2018-07-12T12:11:20.012Z,99744.32
2018-07-12T12:13:48.973Z,99743.69
2018-07-12T12:16:17.984Z,99737.03
2018-07-12T12:18:47.082Z,99730.03
2018-07-12T12:21:16.095Z,99724.39
2018-07-12T12:23:45.122Z,99719.89
2018-07-12T12:26:14.122Z,99727.53
2018-07-12T12:28:43.087Z,99723.96
2018-07-12T12:31:12.129Z,99729.84
2018-07-12T12:33:41.089Z,99717.55
2018-07-12T12:36:10.090Z,99719.95
2018-07-12T12:38:39.036Z,99718.23
2018-07-12T12:41:08.190Z,99718.84
2018-07-12T12:43:37.212Z,99719.63
2018-07-12T12:46:06.195Z,99719.17
2018-07-12T12:48:35.184Z,99718.72
2018-07-12T12:51:04.152Z,99716.08
2018-07-12T12:53:33.132Z,99714.75
2018-07-12T12:56:02.198Z,99706.59
2018-07-12T12:58:31.231Z,99710.59
2018-07-12T13:01:00.197Z,99711.27
2018-07-12T13:03:29.234Z,99707.95
2018-07-12T13:05:58.216Z,99708.19
2018-07-12T13:08:27.299Z,99697.30
2018-07-12T13:10:56.330Z,99700.51
2018-07-12T13:13:25.282Z,99699.12
2018-07-12T13:15:54.460Z,99695.60
2018-07-12T13:18:23.414Z,99695.50
2018-07-12T13:20:52.510Z,99689.97
2018-07-12T13:23:21.608Z,99688.55
2018-07-12T13:25:50.731Z,99693.63
2018-07-12T13:28:19.734Z,99689.00
2018-07-12T13:30:48.774Z,99691.20
2018-07-12T13:33:17.841Z,99686.23
2018-07-12T13:35:46.909Z,99686.55
2018-07-12T13:38:15.982Z,99681.47
2018-07-12T13:40:44.988Z,99685.56
2018-07-12T13:43:13.961Z,99678.55
2018-07-12T13:45:42.989Z,99671.53
2018-07-12T13:48:11.949Z,99679.06
2018-07-12T13:50:41.012Z,99681.89
2018-07-12T13:53:10.925Z,99674.00
2018-07-12T13:55:39.879Z,99674.94
2018-07-12T13:58:08.893Z,99670.89
2018-07-12T14:00:37.843Z,99664.92
2018-07-12T14:03:07.020Z,99669.30
2018-07-12T14:05:36.065Z,99666.95
2018-07-12T14:08:05.163Z,99663.68
2018-07-12T14:10:34.159Z,99666.77
2018-07-12T14:13:03.205Z,99658.77
2018-07-12T14:15:32.181Z,99653.42
2018-07-12T14:18:01.148Z,99657.31
2018-07-12T14:20:30.809Z,99655.77
2018-07-12T14:22:59.884Z,99655.02
2018-07-12T14:25:28.930Z,99653.94
2018-07-12T14:27:57.999Z,99648.86
2018-07-12T14:30:27.089Z,99649.96
2018-07-12T14:32:56.170Z,99643.76
2018-07-12T14:35:25.225Z,99648.00
2018-07-12T14:37:54.180Z,99644.95
2018-07-12T14:40:23.352Z,99646.16
2018-07-12T14:42:52.324Z,99638.13
2018-07-12T14:45:21.386Z,99641.30
2018-07-12T14:47:50.496Z,99638.58
2018-07-12T14:50:19.452Z,99642.06
2018-07-12T14:52:48.562Z,99639.19
2018-07-12T14:55:17.576Z,99636.47
2018-07-12T14:57:46.597Z,99637.34
2018-07-12T15:00:15.616Z,99635.04
2018-07-12T15:02:44.686Z,99635.09
2018-07-12T15:05:13.714Z,99632.25
2018-07-12T15:07:42.785Z,99632.58
2018-07-12T15:10:11.872Z,99640.44
2018-07-12T15:12:40.900Z,99641.56
2018-07-12T15:15:09.972Z,99639.05
2018-07-12T15:17:38.984Z,99637.66
2018-07-12T15:20:08.076Z,99641.11
2018-07-12T15:22:37.064Z,99638.80
2018-07-12T15:25:06.076Z,99637.05
2018-07-12T15:27:35.172Z,99637.41
2018-07-12T15:30:04.187Z,99627.69
2018-07-12T15:32:33.230Z,99630.69
2018-07-12T15:35:02.293Z,99627.75
2018-07-12T15:37:31.310Z,99630.94
2018-07-12T15:40:00.329Z,99627.28
2018-07-12T15:42:29.365Z,99628.55
2018-07-12T15:44:58.408Z,99624.75
2018-07-12T15:47:27.405Z,99625.88
2018-07-12T15:49:56.395Z,99632.33
2018-07-12T15:52:25.473Z,99635.48
2018-07-12T15:54:54.468Z,99634.97
2018-07-12T15:57:23.529Z,99626.78
2018-07-12T15:59:52.545Z,99632.33
2018-07-12T16:02:21.665Z,99637.37
2018-07-12T16:04:50.664Z,99632.95
2018-07-12T16:07:19.660Z,99634.21
2018-07-12T16:09:48.743Z,99632.92
2018-07-12T16:12:17.768Z,99636.19
2018-07-12T16:14:46.772Z,99640.81
2018-07-12T16:17:15.881Z,99639.47
2018-07-12T16:19:44.957Z,99640.63
2018-07-12T16:22:13.928Z,99640.84
2018-07-12T16:24:42.972Z,99638.77
2018-07-12T16:27:11.993Z,99635.30
2018-07-12T16:29:40.949Z,99634.95
2018-07-12T16:32:10.001Z,99632.61
2018-07-12T16:34:39.017Z,99640.48
2018-07-12T16:37:08.171Z,99633.44
2018-07-12T16:39:37.277Z,99635.50
2018-07-12T16:42:06.357Z,99637.05
2018-07-12T16:44:35.424Z,99642.46
2018-07-12T16:47:04.461Z,99643.67
2018-07-12T16:49:33.459Z,99640.91
2018-07-12T16:52:02.490Z,99642.33
2018-07-12T16:54:31.665Z,99638.62
2018-07-12T16:57:00.649Z,99638.81
2018-07-12T16:59:29.716Z,99643.77
2018-07-12T17:01:58.815Z,99640.78
2018-07-12T17:04:27.890Z,99637.33
2018-07-12T17:06:56.870Z,99636.64
2018-07-12T17:09:25.893Z,99641.34
2018-07-12T17:11:54.959Z,99639.62
2018-07-12T17:14:24.009Z,99641.66
2018-07-12T17:16:53.732Z,99637.33
2018-07-12T17:19:22.863Z,99636.07
2018-07-12T17:21:51.876Z,99643.59
2018-07-12T17:24:20.853Z,99649.55
2018-07-12T17:26:49.936Z,99644.48
2018-07-12T17:29:18.992Z,99647.95
2018-07-12T17:31:47.996Z,99645.63
2018-07-12T17:34:17.455Z,99647.70
2018-07-12T17:36:46.554Z,99649.77
2018-07-12T17:39:15.640Z,99648.56
2018-07-12T17:41:44.746Z,99644.80
2018-07-12T17:44:13.717Z,99654.59
2018-07-12T17:46:42.853Z,99647.80
2018-07-12T17:49:11.940Z,99647.94
2018-07-12T17:51:40.937Z,99655.20
2018-07-12T17:54:10.014Z,99655.00
2018-07-12T17:56:39.030Z,99654.52
2018-07-12T17:59:08.064Z,99655.42
2018-07-12T18:01:37.081Z,99663.23
2018-07-12T18:04:06.194Z,99663.00
2018-07-12T18:06:35.209Z,99656.44
2018-07-12T18:09:05.168Z,99669.97
2018-07-12T18:11:34.221Z,99665.31
2018-07-12T18:14:03.201Z,99665.07
2018-07-12T18:16:32.200Z,99671.41
2018-07-12T18:19:01.224Z,99674.77
2018-07-12T18:21:30.379Z,99669.79
2018-07-12T18:23:59.448Z,99673.64
2018-07-12T18:26:28.477Z,99673.64
2018-07-12T18:28:57.496Z,99679.16
2018-07-12T18:31:26.526Z,99678.30
2018-07-12T18:33:55.526Z,99682.70
2018-07-12T18:36:24.500Z,99685.18
2018-07-12T18:38:53.589Z,99679.94
2018-07-12T18:41:22.576Z,99684.06
2018-07-12T18:43:51.987Z,99682.14
2018-07-12T18:46:21.054Z,99683.73
2018-07-12T18:48:50.089Z,99686.19
2018-07-12T18:51:19.094Z,99688.94
2018-07-12T18:53:48.128Z,99695.22
2018-07-12T18:56:17.249Z,99696.57
2018-07-12T18:58:46.284Z,99703.13
2018-07-12T19:01:15.280Z,99701.45
2018-07-12T19:03:44.299Z,99702.82
2018-07-12T19:06:13.336Z,99706.07
2018-07-12T19:08:42.384Z,99701.94
2018-07-12T19:11:11.380Z,99703.30
2018-07-12T19:13:40.480Z,99699.42
2018-07-12T19:16:09.456Z,99697.52
2018-07-12T19:18:38.468Z,99696.91
2018-07-12T19:21:07.534Z,99701.84
2018-07-12T19:23:36.548Z,99708.39
2018-07-12T19:26:06.113Z,99704.52
2018-07-12T19:28:35.144Z,99705.88
2018-07-12T19:31:04.289Z,99709.66
2018-07-12T19:33:33.346Z,99711.30
2018-07-12T19:36:02.399Z,99708.50
2018-07-12T19:38:31.468Z,99710.43
2018-07-12T19:41:00.714Z,99716.41
2018-07-12T19:43:29.831Z,99712.84
2018-07-12T19:45:58.848Z,99714.47
2018-07-12T19:48:27.861Z,99712.81
2018-07-12T19:50:56.954Z,99715.02
2018-07-12T19:53:25.937Z,99720.47
2018-07-12T19:55:54.912Z,99715.50
2018-07-12T19:58:23.916Z,99715.77
2018-07-12T20:00:52.964Z,99712.16
2018-07-12T20:03:21.997Z,99716.27
2018-07-12T20:05:51.004Z,99711.05
2018-07-12T20:08:19.999Z,99719.27
2018-07-12T20:10:49.028Z,99715.45
2018-07-12T20:13:18.060Z,99723.93
2018-07-12T20:15:47.151Z,99723.11
2018-07-12T20:18:16.302Z,99710.11
2018-07-12T20:20:45.261Z,99722.12
2018-07-12T20:23:14.280Z,99729.48
2018-07-12T20:25:43.253Z,99730.86
2018-07-12T20:28:12.317Z,99726.72
2018-07-12T20:30:41.297Z,99723.44
2018-07-12T20:33:10.339Z,99725.09
2018-07-12T20:35:39.348Z,99731.12
2018-07-12T20:38:08.412Z,99731.63
2018-07-12T20:40:37.376Z,99729.94
2018-07-12T20:43:06.406Z,99734.84
2018-07-12T20:45:35.436Z,99732.33
2018-07-12T20:48:04.589Z,99740.26
2018-07-12T20:50:33.507Z,99740.80
2018-07-12T20:53:02.596Z,99740.51
2018-07-12T20:55:31.621Z,99738.78
2018-07-12T20:58:00.618Z,99742.64
2018-07-12T21:00:29.697Z,99737.13
2018-07-12T21:02:58.648Z,99738.74
2018-07-12T21:05:27.679Z,99735.72
2018-07-12T21:07:56.684Z,99732.98
2018-07-12T21:10:25.761Z,99731.89
2018-07-12T21:12:54.716Z,99737.38
2018-07-12T21:15:23.690Z,99742.06
2018-07-12T21:17:52.717Z,99743.18
2018-07-12T21:20:21.668Z,99750.39
2018-07-12T21:22:50.679Z,99744.11
2018-07-12T21:25:19.680Z,99743.64
2018-07-12T21:27:48.633Z,99738.77
2018-07-12T21:30:17.664Z,99741.54
2018-07-12T21:32:46.741Z,99736.70
2018-07-12T21:35:15.792Z,99735.09
2018-07-12T21:37:44.793Z,99735.95
2018-07-12T21:40:13.890Z,99737.33
2018-07-12T21:42:42.855Z,99737.67
2018-07-12T21:45:11.871Z,99731.64
2018-07-12T21:47:40.856Z,99736.08
2018-07-12T21:50:09.859Z,99735.27
2018-07-12T21:52:38.870Z,99741.66
2018-07-12T21:55:07.939Z,99736.46
2018-07-12T21:57:37.015Z,99738.40
2018-07-12T22:00:08.273Z,99739.77
2018-07-12T22:02:37.342Z,99734.28
2018-07-12T22:05:06.353Z,99731.55
2018-07-12T22:07:52.590Z,99730.45
2018-07-12T22:10:21.549Z,99731.00
2018-07-12T22:12:50.565Z,99728.78
2018-07-12T22:15:19.540Z,99722.95
2018-07-12T22:17:48.617Z,99719.66
2018-07-12T22:20:17.604Z,99715.62
2018-07-12T22:22:46.617Z,99727.14
2018-07-12T22:25:15.656Z,99721.12
2018-07-12T22:27:44.606Z,99718.34
2018-07-12T22:30:13.626Z,99712.89
2018-07-12T22:32:42.764Z,99717.00
2018-07-12T22:35:11.732Z,99719.69
2018-07-12T22:37:40.709Z,99716.38
2018-07-12T22:40:09.659Z,99716.66
2018-07-12T22:42:38.853Z,99712.52
2018-07-12T22:45:07.937Z,99716.07
2018-07-12T22:47:37.168Z,99709.45
2018-07-12T22:50:06.316Z,99708.02
2018-07-12T22:52:35.308Z,99711.30
2018-07-12T22:55:04.300Z,99712.48
2018-07-12T22:57:33.320Z,99717.36
2018-07-12T23:00:02.431Z,99717.05
2018-07-12T23:02:31.376Z,99715.97
2018-07-12T23:05:00.363Z,99710.62
2018-07-12T23:07:29.445Z,99716.07
2018-07-12T23:09:58.692Z,99709.50
2018-07-12T23:12:27.946Z,99709.79
2018-07-12T23:14:56.964Z,99708.12
2018-07-12T23:17:26.061Z,99714.70
2018-07-12T23:19:55.061Z,99718.81
2018-07-12T23:22:24.024Z,99713.88
2018-07-12T23:24:53.019Z,99708.10
2018-07-12T23:27:21.964Z,99714.41
2018-07-12T23:29:50.953Z,99710.02
2018-07-12T23:32:19.921Z,99714.41
2018-07-12T23:34:49.010Z,99718.78
2018-07-12T23:37:18.097Z,99721.75
2018-07-12T23:39:47.116Z,99719.80
2018-07-12T23:42:16.213Z,99724.64
2018-07-12T23:44:45.249Z,99730.52
2018-07-12T23:47:14.285Z,99731.20
2018-07-12T23:49:43.245Z,99728.35
2018-07-12T23:52:12.335Z,99725.78
2018-07-12T23:54:41.473Z,99728.91
2018-07-12T23:57:10.428Z,99732.09
2018-07-12T23:59:39.461Z,99728.98
